Startpagina
METAR-TAF:

METAR-TAF

Vliegvelden :

Šiauliai, Litouwen

breedte: 55-53-38N, lengte: 023-23-42E, hoogte: 135 m

Actueel weer

Dit bericht is 33 minuten geleden gemaakt, om 11:50 UTC
Wind 10 kt uit het westen
Temperatuur 18°C
Vochtigheid 56%
Druk 1010 hPa
Zicht 10 km of meer
Verspreide wolken op 3900 ft
Gebroken wolken op 6100 ft

METAR: EYSA 071150Z 26010KT 9999 SCT039 BKN061 18/09 Q1010 BLU NOSIG

Tijdstip: 15:23 (12:23 UTC)

Verwachting

Dit bericht is 1 uur en het 21 minuten geleden gemaakt, om 11:02 UTC
Verwachting geldig van 07 om 12 UTC tot 07 om 21 UTC
Wind 15 kt uit het westen
Zicht: 9000 m
Gebroken wolken op 3500 ft
Tijdelijke
van 07 om 12 UTC tot 07 om 18 UTC
Gebroken wolken op 2000 ft, Cumulonimbus.

TAF: EYSA 071102Z 0712/0721 27015KT 9000 BKN035 TEMPO 0712/0718 BKN020CB

Waarnemingen en weersverwachtingen van meer dan 4000 vliegvelden (METAR en TAF).

De beschikbare stations zijn de gele en rode punten op de kaart.

Ga met uw muis naar het station om de naam te zien.

Klik dan om waarnemingen en weersverwachtingen te zien.

kaart wijzigen: klik op de groene knoppen met een zwart kruis om in te zoomen, op de groene knop met een streepje om uit te zoomen of op de groene pijlen voor aangrenzende kaarten.


METAR-TAF: